Terminal Aerodrome Forecast
Issued by NWS Spokane, WA

Current Version | Previous Version | Text Only | Print | Product List | Glossary On
Versions: 1 2 3 4 5 6 7 8 9 10 11 12 13 14 15 16 17 18 19 20 21 22 23 24 25 26 27 28 29 30
000
FTUS46 KOTX 101734 CCA
TAFGEG
TAF COR
KGEG 101734Z 1018/1118 14004KT 5SM PRFG SCT003 BKN150
      TEMPO 1018/1020 1/2SM FZFG VV002
     FM102000 16006KT P6SM BKN140 BKN200
     FM110800 15004KT 5SM BR SCT004 OVC008
     FM111500 09004KT 1/2SM FG OVC004=

USA.gov is the U.S. government's official web portal to all federal, state and local government web resources and services.